<?xml version="1.0" encoding="UTF-8" standalone="no" ?>
<gpx xmlns="http://www.topografix.com/GPX/1/1" xmlns:xsi="http://www.w3.org/2001/XMLSchema-instance" xsi:schemaLocation="http://www.topografix.com/GPX/1/1 http://www.topografix.com/GPX/1/1/gpx.xsd" version="1.1" creator="VisuGPX - https://www.visugpx.com">
  <metadata>
    <name>les trois randonnées BS MS PS </name>
  </metadata>
  <trk>
    <name><![CDATA[10695439-Petite Sancerroise_2020_V4]]></name>
    <trkseg>
      <trkpt lat="47.33054" lon="2.83061">
        <ele>216</ele>
        <time>2019-11-14T17:16:49Z</time>
      </trkpt>
      <trkpt lat="47.3296" lon="2.83281">
        <ele>239</ele>
        <time>2019-11-14T17:20:44Z</time>
      </trkpt>
      <trkpt lat="47.32974" lon="2.83362">
        <ele>246</ele>
        <time>2019-11-14T17:22:00Z</time>
      </trkpt>
      <trkpt lat="47.33018" lon="2.83377">
        <ele>245</ele>
        <time>2019-11-14T17:23:00Z</time>
      </trkpt>
      <trkpt lat="47.3308" lon="2.83375">
        <ele>241</ele>
        <time>2019-11-14T17:24:23Z</time>
      </trkpt>
      <trkpt lat="47.33205" lon="2.83384">
        <ele>238</ele>
        <time>2019-11-14T17:27:10Z</time>
      </trkpt>
      <trkpt lat="47.3325" lon="2.83399">
        <ele>236</ele>
        <time>2019-11-14T17:28:11Z</time>
      </trkpt>
      <trkpt lat="47.33278" lon="2.83406">
        <ele>235</ele>
        <time>2019-11-14T17:28:49Z</time>
      </trkpt>
      <trkpt lat="47.33311" lon="2.83412">
        <ele>232</ele>
        <time>2019-11-14T17:29:34Z</time>
      </trkpt>
      <trkpt lat="47.33378" lon="2.83444">
        <ele>229</ele>
        <time>2019-11-14T17:31:08Z</time>
      </trkpt>
      <trkpt lat="47.33421" lon="2.83494">
        <ele>228</ele>
        <time>2019-11-14T17:32:21Z</time>
      </trkpt>
      <trkpt lat="47.33457" lon="2.83536">
        <ele>225</ele>
        <time>2019-11-14T17:33:22Z</time>
      </trkpt>
      <trkpt lat="47.33479" lon="2.83574">
        <ele>225</ele>
        <time>2019-11-14T17:34:07Z</time>
      </trkpt>
      <trkpt lat="47.33515" lon="2.83632">
        <ele>223</ele>
        <time>2019-11-14T17:35:18Z</time>
      </trkpt>
      <trkpt lat="47.33533" lon="2.83674">
        <ele>223</ele>
        <time>2019-11-14T17:36:03Z</time>
      </trkpt>
      <trkpt lat="47.3356" lon="2.83717">
        <ele>221</ele>
        <time>2019-11-14T17:36:56Z</time>
      </trkpt>
      <trkpt lat="47.33581" lon="2.83696">
        <ele>217</ele>
        <time>2019-11-14T17:37:30Z</time>
      </trkpt>
      <trkpt lat="47.33592" lon="2.83659">
        <ele>212</ele>
        <time>2019-11-14T17:38:07Z</time>
      </trkpt>
      <trkpt lat="47.33623" lon="2.83578">
        <ele>201</ele>
        <time>2019-11-14T17:39:31Z</time>
      </trkpt>
      <trkpt lat="47.33648" lon="2.83496">
        <ele>192</ele>
        <time>2019-11-14T17:40:52Z</time>
      </trkpt>
      <trkpt lat="47.33681" lon="2.83372">
        <ele>179</ele>
        <time>2019-11-14T17:42:53Z</time>
      </trkpt>
      <trkpt lat="47.33705" lon="2.83339">
        <ele>174</ele>
        <time>2019-11-14T17:43:36Z</time>
      </trkpt>
      <trkpt lat="47.33693" lon="2.83344">
        <ele>176</ele>
        <time>2019-11-14T17:43:53Z</time>
      </trkpt>
      <trkpt lat="47.33738" lon="2.83307">
        <ele>170</ele>
        <time>2019-11-14T17:45:02Z</time>
      </trkpt>
      <trkpt lat="47.33748" lon="2.83299">
        <ele>170</ele>
        <time>2019-11-14T17:45:17Z</time>
      </trkpt>
      <trkpt lat="47.33757" lon="2.83287">
        <ele>169</ele>
        <time>2019-11-14T17:45:33Z</time>
      </trkpt>
      <trkpt lat="47.33776" lon="2.83282">
        <ele>169</ele>
        <time>2019-11-14T17:45:59Z</time>
      </trkpt>
      <trkpt lat="47.33805" lon="2.83264">
        <ele>168</ele>
        <time>2019-11-14T17:46:41Z</time>
      </trkpt>
      <trkpt lat="47.34071" lon="2.83236">
        <ele>176</ele>
        <time>2019-11-14T17:52:37Z</time>
      </trkpt>
      <trkpt lat="47.34105" lon="2.83238">
        <ele>177</ele>
        <time>2019-11-14T17:53:22Z</time>
      </trkpt>
      <trkpt lat="47.34208" lon="2.83208">
        <ele>180</ele>
        <time>2019-11-14T17:55:42Z</time>
      </trkpt>
      <trkpt lat="47.34324" lon="2.83185">
        <ele>177</ele>
        <time>2019-11-14T17:58:18Z</time>
      </trkpt>
      <trkpt lat="47.34448" lon="2.83223">
        <ele>182</ele>
        <time>2019-11-14T18:01:07Z</time>
      </trkpt>
      <trkpt lat="47.34522" lon="2.83099">
        <ele>199</ele>
        <time>2019-11-14T18:03:37Z</time>
      </trkpt>
      <trkpt lat="47.34547" lon="2.83037">
        <ele>209</ele>
        <time>2019-11-14T18:04:42Z</time>
      </trkpt>
      <trkpt lat="47.34648" lon="2.82894">
        <ele>228</ele>
        <time>2019-11-14T18:07:49Z</time>
      </trkpt>
      <trkpt lat="47.34665" lon="2.82844">
        <ele>230</ele>
        <time>2019-11-14T18:08:39Z</time>
      </trkpt>
      <trkpt lat="47.34671" lon="2.82771">
        <ele>233</ele>
        <time>2019-11-14T18:09:46Z</time>
      </trkpt>
      <trkpt lat="47.34674" lon="2.82733">
        <ele>235</ele>
        <time>2019-11-14T18:10:20Z</time>
      </trkpt>
      <trkpt lat="47.34706" lon="2.82673">
        <ele>236</ele>
        <time>2019-11-14T18:11:30Z</time>
      </trkpt>
      <trkpt lat="47.34801" lon="2.82478">
        <ele>242</ele>
        <time>2019-11-14T18:15:07Z</time>
      </trkpt>
      <trkpt lat="47.34825" lon="2.82423">
        <ele>245</ele>
        <time>2019-11-14T18:16:06Z</time>
      </trkpt>
      <trkpt lat="47.34691" lon="2.82197">
        <ele>248</ele>
        <time>2019-11-14T18:20:37Z</time>
      </trkpt>
      <trkpt lat="47.34662" lon="2.82127">
        <ele>248</ele>
        <time>2019-11-14T18:21:52Z</time>
      </trkpt>
      <trkpt lat="47.34654" lon="2.8209">
        <ele>248</ele>
        <time>2019-11-14T18:22:27Z</time>
      </trkpt>
      <trkpt lat="47.34673" lon="2.8208">
        <ele>247</ele>
        <time>2019-11-14T18:22:54Z</time>
      </trkpt>
      <trkpt lat="47.34816" lon="2.81978">
        <ele>239</ele>
        <time>2019-11-14T18:26:26Z</time>
      </trkpt>
      <trkpt lat="47.34943" lon="2.81906">
        <ele>229</ele>
        <time>2019-11-14T18:29:27Z</time>
      </trkpt>
      <trkpt lat="47.34981" lon="2.8197">
        <ele>227</ele>
        <time>2019-11-14T18:30:44Z</time>
      </trkpt>
      <trkpt lat="47.35029" lon="2.8204">
        <ele>226</ele>
        <time>2019-11-14T18:32:14Z</time>
      </trkpt>
      <trkpt lat="47.35072" lon="2.82112">
        <ele>226</ele>
        <time>2019-11-14T18:33:41Z</time>
      </trkpt>
      <trkpt lat="47.35131" lon="2.82214">
        <ele>224</ele>
        <time>2019-11-14T18:35:42Z</time>
      </trkpt>
      <trkpt lat="47.35161" lon="2.82276">
        <ele>223</ele>
        <time>2019-11-14T18:36:51Z</time>
      </trkpt>
      <trkpt lat="47.35178" lon="2.82244">
        <ele>222</ele>
        <time>2019-11-14T18:37:28Z</time>
      </trkpt>
      <trkpt lat="47.35195" lon="2.82207">
        <ele>222</ele>
        <time>2019-11-14T18:38:08Z</time>
      </trkpt>
      <trkpt lat="47.35328" lon="2.81878">
        <ele>229</ele>
        <time>2019-11-14T18:43:55Z</time>
      </trkpt>
      <trkpt lat="47.35389" lon="2.81726">
        <ele>232</ele>
        <time>2019-11-14T18:46:34Z</time>
      </trkpt>
      <trkpt lat="47.35399" lon="2.81676">
        <ele>232</ele>
        <time>2019-11-14T18:47:21Z</time>
      </trkpt>
      <trkpt lat="47.35406" lon="2.81618">
        <ele>233</ele>
        <time>2019-11-14T18:48:15Z</time>
      </trkpt>
      <trkpt lat="47.35416" lon="2.81546">
        <ele>233</ele>
        <time>2019-11-14T18:49:21Z</time>
      </trkpt>
      <trkpt lat="47.35444" lon="2.8149">
        <ele>234</ele>
        <time>2019-11-14T18:50:24Z</time>
      </trkpt>
      <trkpt lat="47.35465" lon="2.81451">
        <ele>235</ele>
        <time>2019-11-14T18:51:09Z</time>
      </trkpt>
      <trkpt lat="47.35543" lon="2.81549">
        <ele>235</ele>
        <time>2019-11-14T18:53:26Z</time>
      </trkpt>
      <trkpt lat="47.35614" lon="2.81617">
        <ele>236</ele>
        <time>2019-11-14T18:55:19Z</time>
      </trkpt>
      <trkpt lat="47.35684" lon="2.81498">
        <ele>239</ele>
        <time>2019-11-14T18:57:41Z</time>
      </trkpt>
      <trkpt lat="47.35833" lon="2.81503">
        <ele>239</ele>
        <time>2019-11-14T19:01:00Z</time>
      </trkpt>
      <trkpt lat="47.35864" lon="2.81504">
        <ele>238</ele>
        <time>2019-11-14T19:01:41Z</time>
      </trkpt>
      <trkpt lat="47.35906" lon="2.81514">
        <ele>238</ele>
        <time>2019-11-14T19:02:38Z</time>
      </trkpt>
      <trkpt lat="47.35933" lon="2.81537">
        <ele>238</ele>
        <time>2019-11-14T19:03:20Z</time>
      </trkpt>
      <trkpt lat="47.35949" lon="2.81565">
        <ele>238</ele>
        <time>2019-11-14T19:03:53Z</time>
      </trkpt>
      <trkpt lat="47.35999" lon="2.81618">
        <ele>239</ele>
        <time>2019-11-14T19:05:15Z</time>
      </trkpt>
      <trkpt lat="47.36021" lon="2.81657">
        <ele>240</ele>
        <time>2019-11-14T19:06:01Z</time>
      </trkpt>
      <trkpt lat="47.36054" lon="2.81692">
        <ele>241</ele>
        <time>2019-11-14T19:06:55Z</time>
      </trkpt>
      <trkpt lat="47.3612" lon="2.8175">
        <ele>243</ele>
        <time>2019-11-14T19:08:38Z</time>
      </trkpt>
      <trkpt lat="47.36321" lon="2.81858">
        <ele>233</ele>
        <time>2019-11-14T19:13:23Z</time>
      </trkpt>
      <trkpt lat="47.36424" lon="2.81929">
        <ele>229</ele>
        <time>2019-11-14T19:15:55Z</time>
      </trkpt>
      <trkpt lat="47.36583" lon="2.82024">
        <ele>227</ele>
        <time>2019-11-14T19:19:44Z</time>
      </trkpt>
      <trkpt lat="47.36631" lon="2.81976">
        <ele>227</ele>
        <time>2019-11-14T19:21:01Z</time>
      </trkpt>
      <trkpt lat="47.36705" lon="2.81882">
        <ele>229</ele>
        <time>2019-11-14T19:23:11Z</time>
      </trkpt>
      <trkpt lat="47.3674" lon="2.81817">
        <ele>231</ele>
        <time>2019-11-14T19:24:26Z</time>
      </trkpt>
      <trkpt lat="47.36824" lon="2.81684">
        <ele>236</ele>
        <time>2019-11-14T19:27:11Z</time>
      </trkpt>
      <trkpt lat="47.36861" lon="2.81608">
        <ele>242</ele>
        <time>2019-11-14T19:28:35Z</time>
      </trkpt>
      <trkpt lat="47.3692" lon="2.81465">
        <ele>254</ele>
        <time>2019-11-14T19:31:07Z</time>
      </trkpt>
      <trkpt lat="47.36992" lon="2.81374">
        <ele>246</ele>
        <time>2019-11-14T19:33:13Z</time>
      </trkpt>
      <trkpt lat="47.3701" lon="2.81317">
        <ele>240</ele>
        <time>2019-11-14T19:34:10Z</time>
      </trkpt>
      <trkpt lat="47.3702" lon="2.81281">
        <ele>236</ele>
        <time>2019-11-14T19:34:45Z</time>
      </trkpt>
      <trkpt lat="47.37044" lon="2.8123">
        <ele>228</ele>
        <time>2019-11-14T19:35:41Z</time>
      </trkpt>
      <trkpt lat="47.37078" lon="2.81184">
        <ele>219</ele>
        <time>2019-11-14T19:36:43Z</time>
      </trkpt>
      <trkpt lat="47.37145" lon="2.81115">
        <ele>210</ele>
        <time>2019-11-14T19:38:32Z</time>
      </trkpt>
      <trkpt lat="47.3716" lon="2.81109">
        <ele>209</ele>
        <time>2019-11-14T19:38:53Z</time>
      </trkpt>
      <trkpt lat="47.37201" lon="2.811">
        <ele>208</ele>
        <time>2019-11-14T19:39:48Z</time>
      </trkpt>
      <trkpt lat="47.37338" lon="2.80982">
        <ele>211</ele>
        <time>2019-11-14T19:43:20Z</time>
      </trkpt>
      <trkpt lat="47.37346" lon="2.80967">
        <ele>212</ele>
        <time>2019-11-14T19:43:37Z</time>
      </trkpt>
      <trkpt lat="47.37377" lon="2.80957">
        <ele>214</ele>
        <time>2019-11-14T19:44:19Z</time>
      </trkpt>
      <trkpt lat="47.37411" lon="2.8097">
        <ele>215</ele>
        <time>2019-11-14T19:45:06Z</time>
      </trkpt>
      <trkpt lat="47.3738" lon="2.8073">
        <ele>218</ele>
        <time>2019-11-14T19:48:47Z</time>
      </trkpt>
      <trkpt lat="47.37357" lon="2.80707">
        <ele>220</ele>
        <time>2019-11-14T19:49:24Z</time>
      </trkpt>
      <trkpt lat="47.37318" lon="2.80609">
        <ele>224</ele>
        <time>2019-11-14T19:51:07Z</time>
      </trkpt>
      <trkpt lat="47.37284" lon="2.80496">
        <ele>231</ele>
        <time>2019-11-14T19:52:58Z</time>
      </trkpt>
      <trkpt lat="47.37278" lon="2.80445">
        <ele>234</ele>
        <time>2019-11-14T19:53:45Z</time>
      </trkpt>
      <trkpt lat="47.37259" lon="2.80406">
        <ele>238</ele>
        <time>2019-11-14T19:54:29Z</time>
      </trkpt>
      <trkpt lat="47.37226" lon="2.80404">
        <ele>237</ele>
        <time>2019-11-14T19:55:13Z</time>
      </trkpt>
      <trkpt lat="47.3719" lon="2.80384">
        <ele>238</ele>
        <time>2019-11-14T19:56:04Z</time>
      </trkpt>
      <trkpt lat="47.37163" lon="2.80379">
        <ele>238</ele>
        <time>2019-11-14T19:56:40Z</time>
      </trkpt>
      <trkpt lat="47.36942" lon="2.80307">
        <ele>238</ele>
        <time>2019-11-14T20:01:42Z</time>
      </trkpt>
      <trkpt lat="47.36906" lon="2.80309">
        <ele>237</ele>
        <time>2019-11-14T20:02:30Z</time>
      </trkpt>
      <trkpt lat="47.36891" lon="2.80299">
        <ele>238</ele>
        <time>2019-11-14T20:02:52Z</time>
      </trkpt>
      <trkpt lat="47.36859" lon="2.80324">
        <ele>238</ele>
        <time>2019-11-14T20:03:41Z</time>
      </trkpt>
      <trkpt lat="47.36817" lon="2.80371">
        <ele>235</ele>
        <time>2019-11-14T20:04:51Z</time>
      </trkpt>
      <trkpt lat="47.36804" lon="2.8039">
        <ele>233</ele>
        <time>2019-11-14T20:05:15Z</time>
      </trkpt>
      <trkpt lat="47.36751" lon="2.8027">
        <ele>242</ele>
        <time>2019-11-14T20:07:25Z</time>
      </trkpt>
      <trkpt lat="47.36707" lon="2.80073">
        <ele>257</ele>
        <time>2019-11-14T20:10:32Z</time>
      </trkpt>
      <trkpt lat="47.36683" lon="2.79902">
        <ele>271</ele>
        <time>2019-11-14T20:13:10Z</time>
      </trkpt>
      <trkpt lat="47.36671" lon="2.7977">
        <ele>279</ele>
        <time>2019-11-14T20:15:11Z</time>
      </trkpt>
      <trkpt lat="47.36666" lon="2.7937">
        <ele>303</ele>
        <time>2019-11-14T20:21:12Z</time>
      </trkpt>
      <trkpt lat="47.36666" lon="2.7933">
        <ele>305</ele>
        <time>2019-11-14T20:21:48Z</time>
      </trkpt>
      <trkpt lat="47.36637" lon="2.79347">
        <ele>304</ele>
        <time>2019-11-14T20:22:30Z</time>
      </trkpt>
      <trkpt lat="47.366" lon="2.7937">
        <ele>302</ele>
        <time>2019-11-14T20:23:23Z</time>
      </trkpt>
      <trkpt lat="47.36448" lon="2.79409">
        <ele>296</ele>
        <time>2019-11-14T20:26:49Z</time>
      </trkpt>
      <trkpt lat="47.36408" lon="2.79405">
        <ele>297</ele>
        <time>2019-11-14T20:27:43Z</time>
      </trkpt>
      <trkpt lat="47.36333" lon="2.79418">
        <ele>297</ele>
        <time>2019-11-14T20:29:24Z</time>
      </trkpt>
      <trkpt lat="47.36316" lon="2.79435">
        <ele>294</ele>
        <time>2019-11-14T20:29:51Z</time>
      </trkpt>
      <trkpt lat="47.3624" lon="2.79567">
        <ele>273</ele>
        <time>2019-11-14T20:32:28Z</time>
      </trkpt>
      <trkpt lat="47.36198" lon="2.79652">
        <ele>258</ele>
        <time>2019-11-14T20:34:03Z</time>
      </trkpt>
      <trkpt lat="47.36152" lon="2.79703">
        <ele>246</ele>
        <time>2019-11-14T20:35:19Z</time>
      </trkpt>
      <trkpt lat="47.36129" lon="2.79715">
        <ele>244</ele>
        <time>2019-11-14T20:35:52Z</time>
      </trkpt>
      <trkpt lat="47.36101" lon="2.79728">
        <ele>241</ele>
        <time>2019-11-14T20:36:31Z</time>
      </trkpt>
      <trkpt lat="47.36091" lon="2.79731">
        <ele>240</ele>
        <time>2019-11-14T20:36:45Z</time>
      </trkpt>
      <trkpt lat="47.36072" lon="2.7975">
        <ele>239</ele>
        <time>2019-11-14T20:37:15Z</time>
      </trkpt>
      <trkpt lat="47.36013" lon="2.79855">
        <ele>235</ele>
        <time>2019-11-14T20:39:19Z</time>
      </trkpt>
      <trkpt lat="47.36002" lon="2.799">
        <ele>234</ele>
        <time>2019-11-14T20:40:02Z</time>
      </trkpt>
      <trkpt lat="47.35977" lon="2.79944">
        <ele>233</ele>
        <time>2019-11-14T20:40:54Z</time>
      </trkpt>
      <trkpt lat="47.35951" lon="2.79972">
        <ele>234</ele>
        <time>2019-11-14T20:41:37Z</time>
      </trkpt>
      <trkpt lat="47.35828" lon="2.80161">
        <ele>260</ele>
        <time>2019-11-14T20:45:34Z</time>
      </trkpt>
      <trkpt lat="47.35795" lon="2.80119">
        <ele>264</ele>
        <time>2019-11-14T20:46:32Z</time>
      </trkpt>
      <trkpt lat="47.35774" lon="2.80099">
        <ele>267</ele>
        <time>2019-11-14T20:47:05Z</time>
      </trkpt>
      <trkpt lat="47.35746" lon="2.80036">
        <ele>267</ele>
        <time>2019-11-14T20:48:13Z</time>
      </trkpt>
      <trkpt lat="47.35727" lon="2.79978">
        <ele>265</ele>
        <time>2019-11-14T20:49:12Z</time>
      </trkpt>
      <trkpt lat="47.35696" lon="2.7994">
        <ele>268</ele>
        <time>2019-11-14T20:50:05Z</time>
      </trkpt>
      <trkpt lat="47.3566" lon="2.79895">
        <ele>270</ele>
        <time>2019-11-14T20:51:08Z</time>
      </trkpt>
      <trkpt lat="47.35647" lon="2.79875">
        <ele>270</ele>
        <time>2019-11-14T20:51:33Z</time>
      </trkpt>
      <trkpt lat="47.3566" lon="2.7986">
        <ele>267</ele>
        <time>2019-11-14T20:51:55Z</time>
      </trkpt>
      <trkpt lat="47.35667" lon="2.79828">
        <ele>263</ele>
        <time>2019-11-14T20:52:26Z</time>
      </trkpt>
      <trkpt lat="47.35645" lon="2.7982">
        <ele>265</ele>
        <time>2019-11-14T20:52:56Z</time>
      </trkpt>
      <trkpt lat="47.35627" lon="2.79824">
        <ele>268</ele>
        <time>2019-11-14T20:53:20Z</time>
      </trkpt>
      <trkpt lat="47.356" lon="2.79814">
        <ele>270</ele>
        <time>2019-11-14T20:53:58Z</time>
      </trkpt>
      <trkpt lat="47.3555" lon="2.7982">
        <ele>276</ele>
        <time>2019-11-14T20:55:04Z</time>
      </trkpt>
      <trkpt lat="47.35515" lon="2.79823">
        <ele>280</ele>
        <time>2019-11-14T20:55:51Z</time>
      </trkpt>
      <trkpt lat="47.35484" lon="2.79837">
        <ele>283</ele>
        <time>2019-11-14T20:56:35Z</time>
      </trkpt>
      <trkpt lat="47.35425" lon="2.79893">
        <ele>290</ele>
        <time>2019-11-14T20:58:08Z</time>
      </trkpt>
      <trkpt lat="47.35337" lon="2.79994">
        <ele>302</ele>
        <time>2019-11-14T21:00:37Z</time>
      </trkpt>
      <trkpt lat="47.35324" lon="2.80023">
        <ele>304</ele>
        <time>2019-11-14T21:01:08Z</time>
      </trkpt>
      <trkpt lat="47.35309" lon="2.8005">
        <ele>306</ele>
        <time>2019-11-14T21:01:40Z</time>
      </trkpt>
      <trkpt lat="47.35298" lon="2.80078">
        <ele>307</ele>
        <time>2019-11-14T21:02:09Z</time>
      </trkpt>
      <trkpt lat="47.35285" lon="2.8011">
        <ele>307</ele>
        <time>2019-11-14T21:02:43Z</time>
      </trkpt>
      <trkpt lat="47.35197" lon="2.8001">
        <ele>309</ele>
        <time>2019-11-14T21:05:11Z</time>
      </trkpt>
      <trkpt lat="47.35084" lon="2.7988">
        <ele>314</ele>
        <time>2019-11-14T21:08:22Z</time>
      </trkpt>
      <trkpt lat="47.34855" lon="2.79722">
        <ele>320</ele>
        <time>2019-11-14T21:14:00Z</time>
      </trkpt>
      <trkpt lat="47.34759" lon="2.79655">
        <ele>323</ele>
        <time>2019-11-14T21:16:21Z</time>
      </trkpt>
      <trkpt lat="47.34729" lon="2.79636">
        <ele>323</ele>
        <time>2019-11-14T21:17:05Z</time>
      </trkpt>
      <trkpt lat="47.34718" lon="2.79588">
        <ele>322</ele>
        <time>2019-11-14T21:17:51Z</time>
      </trkpt>
      <trkpt lat="47.34708" lon="2.79548">
        <ele>322</ele>
        <time>2019-11-14T21:18:29Z</time>
      </trkpt>
      <trkpt lat="47.34695" lon="2.79525">
        <ele>323</ele>
        <time>2019-11-14T21:18:56Z</time>
      </trkpt>
      <trkpt lat="47.34695" lon="2.79481">
        <ele>323</ele>
        <time>2019-11-14T21:19:36Z</time>
      </trkpt>
      <trkpt lat="47.34707" lon="2.79381">
        <ele>322</ele>
        <time>2019-11-14T21:21:08Z</time>
      </trkpt>
      <trkpt lat="47.34701" lon="2.79224">
        <ele>321</ele>
        <time>2019-11-14T21:23:30Z</time>
      </trkpt>
      <trkpt lat="47.3469" lon="2.79171">
        <ele>318</ele>
        <time>2019-11-14T21:24:20Z</time>
      </trkpt>
      <trkpt lat="47.34655" lon="2.791">
        <ele>317</ele>
        <time>2019-11-14T21:25:40Z</time>
      </trkpt>
      <trkpt lat="47.34621" lon="2.79058">
        <ele>319</ele>
        <time>2019-11-14T21:26:39Z</time>
      </trkpt>
      <trkpt lat="47.34599" lon="2.78977">
        <ele>322</ele>
        <time>2019-11-14T21:27:58Z</time>
      </trkpt>
      <trkpt lat="47.34554" lon="2.78942">
        <ele>326</ele>
        <time>2019-11-14T21:29:06Z</time>
      </trkpt>
      <trkpt lat="47.34526" lon="2.78919">
        <ele>328</ele>
        <time>2019-11-14T21:29:48Z</time>
      </trkpt>
      <trkpt lat="47.345" lon="2.78899">
        <ele>329</ele>
        <time>2019-11-14T21:30:27Z</time>
      </trkpt>
      <trkpt lat="47.34479" lon="2.78882">
        <ele>330</ele>
        <time>2019-11-14T21:30:59Z</time>
      </trkpt>
      <trkpt lat="47.34455" lon="2.78861">
        <ele>331</ele>
        <time>2019-11-14T21:31:37Z</time>
      </trkpt>
      <trkpt lat="47.34396" lon="2.78838">
        <ele>332</ele>
        <time>2019-11-14T21:32:58Z</time>
      </trkpt>
      <trkpt lat="47.3437" lon="2.78836">
        <ele>333</ele>
        <time>2019-11-14T21:33:33Z</time>
      </trkpt>
      <trkpt lat="47.34344" lon="2.78829">
        <ele>334</ele>
        <time>2019-11-14T21:34:08Z</time>
      </trkpt>
      <trkpt lat="47.34324" lon="2.78827">
        <ele>334</ele>
        <time>2019-11-14T21:34:35Z</time>
      </trkpt>
      <trkpt lat="47.3431" lon="2.78825">
        <ele>335</ele>
        <time>2019-11-14T21:34:54Z</time>
      </trkpt>
      <trkpt lat="47.34146" lon="2.78716">
        <ele>334</ele>
        <time>2019-11-14T21:38:54Z</time>
      </trkpt>
      <trkpt lat="47.34115" lon="2.78699">
        <ele>333</ele>
        <time>2019-11-14T21:39:38Z</time>
      </trkpt>
      <trkpt lat="47.3411" lon="2.78736">
        <ele>330</ele>
        <time>2019-11-14T21:40:12Z</time>
      </trkpt>
      <trkpt lat="47.34118" lon="2.78761">
        <ele>329</ele>
        <time>2019-11-14T21:40:37Z</time>
      </trkpt>
      <trkpt lat="47.34126" lon="2.78801">
        <ele>326</ele>
        <time>2019-11-14T21:41:15Z</time>
      </trkpt>
      <trkpt lat="47.34121" lon="2.78811">
        <ele>324</ele>
        <time>2019-11-14T21:41:26Z</time>
      </trkpt>
      <trkpt lat="47.34113" lon="2.78817">
        <ele>321</ele>
        <time>2019-11-14T21:41:38Z</time>
      </trkpt>
      <trkpt lat="47.34096" lon="2.78806">
        <ele>320</ele>
        <time>2019-11-14T21:42:03Z</time>
      </trkpt>
      <trkpt lat="47.34072" lon="2.78771">
        <ele>322</ele>
        <time>2019-11-14T21:42:48Z</time>
      </trkpt>
      <trkpt lat="47.34042" lon="2.78757">
        <ele>319</ele>
        <time>2019-11-14T21:43:30Z</time>
      </trkpt>
      <trkpt lat="47.34016" lon="2.78757">
        <ele>315</ele>
        <time>2019-11-14T21:44:04Z</time>
      </trkpt>
      <trkpt lat="47.33994" lon="2.7877">
        <ele>310</ele>
        <time>2019-11-14T21:44:36Z</time>
      </trkpt>
      <trkpt lat="47.33979" lon="2.78796">
        <ele>307</ele>
        <time>2019-11-14T21:45:07Z</time>
      </trkpt>
      <trkpt lat="47.33965" lon="2.78817">
        <ele>305</ele>
        <time>2019-11-14T21:45:33Z</time>
      </trkpt>
      <trkpt lat="47.33987" lon="2.78829">
        <ele>301</ele>
        <time>2019-11-14T21:46:05Z</time>
      </trkpt>
      <trkpt lat="47.34005" lon="2.78843">
        <ele>298</ele>
        <time>2019-11-14T21:46:32Z</time>
      </trkpt>
      <trkpt lat="47.34051" lon="2.78903">
        <ele>298</ele>
        <time>2019-11-14T21:47:54Z</time>
      </trkpt>
      <trkpt lat="47.34057" lon="2.78928">
        <ele>296</ele>
        <time>2019-11-14T21:48:18Z</time>
      </trkpt>
      <trkpt lat="47.34066" lon="2.78955">
        <ele>295</ele>
        <time>2019-11-14T21:48:45Z</time>
      </trkpt>
      <trkpt lat="47.34075" lon="2.78974">
        <ele>296</ele>
        <time>2019-11-14T21:49:06Z</time>
      </trkpt>
      <trkpt lat="47.34084" lon="2.79004">
        <ele>295</ele>
        <time>2019-11-14T21:49:36Z</time>
      </trkpt>
      <trkpt lat="47.34093" lon="2.79042">
        <ele>295</ele>
        <time>2019-11-14T21:50:12Z</time>
      </trkpt>
      <trkpt lat="47.34096" lon="2.79069">
        <ele>294</ele>
        <time>2019-11-14T21:50:37Z</time>
      </trkpt>
      <trkpt lat="47.34101" lon="2.79097">
        <ele>294</ele>
        <time>2019-11-14T21:51:03Z</time>
      </trkpt>
      <trkpt lat="47.34107" lon="2.79192">
        <ele>292</ele>
        <time>2019-11-14T21:52:29Z</time>
      </trkpt>
      <trkpt lat="47.34107" lon="2.79266">
        <ele>289</ele>
        <time>2019-11-14T21:53:36Z</time>
      </trkpt>
      <trkpt lat="47.34112" lon="2.79297">
        <ele>291</ele>
        <time>2019-11-14T21:54:05Z</time>
      </trkpt>
      <trkpt lat="47.34113" lon="2.79326">
        <ele>291</ele>
        <time>2019-11-14T21:54:31Z</time>
      </trkpt>
      <trkpt lat="47.34114" lon="2.79375">
        <ele>291</ele>
        <time>2019-11-14T21:55:16Z</time>
      </trkpt>
      <trkpt lat="47.34116" lon="2.79418">
        <ele>293</ele>
        <time>2019-11-14T21:55:55Z</time>
      </trkpt>
      <trkpt lat="47.34115" lon="2.79477">
        <ele>294</ele>
        <time>2019-11-14T21:56:48Z</time>
      </trkpt>
      <trkpt lat="47.34115" lon="2.79524">
        <ele>296</ele>
        <time>2019-11-14T21:57:30Z</time>
      </trkpt>
      <trkpt lat="47.34114" lon="2.79565">
        <ele>297</ele>
        <time>2019-11-14T21:58:08Z</time>
      </trkpt>
      <trkpt lat="47.34107" lon="2.79605">
        <ele>295</ele>
        <time>2019-11-14T21:58:45Z</time>
      </trkpt>
      <trkpt lat="47.34108" lon="2.79636">
        <ele>297</ele>
        <time>2019-11-14T21:59:13Z</time>
      </trkpt>
      <trkpt lat="47.3411" lon="2.79636">
        <ele>298</ele>
        <time>2019-11-14T21:59:16Z</time>
      </trkpt>
      <trkpt lat="47.341" lon="2.79653">
        <ele>295</ele>
        <time>2019-11-14T21:59:36Z</time>
      </trkpt>
      <trkpt lat="47.34099" lon="2.79672">
        <ele>295</ele>
        <time>2019-11-14T21:59:53Z</time>
      </trkpt>
      <trkpt lat="47.34097" lon="2.79701">
        <ele>296</ele>
        <time>2019-11-14T22:00:20Z</time>
      </trkpt>
      <trkpt lat="47.34096" lon="2.79732">
        <ele>298</ele>
        <time>2019-11-14T22:00:48Z</time>
      </trkpt>
      <trkpt lat="47.34089" lon="2.798">
        <ele>296</ele>
        <time>2019-11-14T22:01:50Z</time>
      </trkpt>
      <trkpt lat="47.34088" lon="2.79848">
        <ele>294</ele>
        <time>2019-11-14T22:02:33Z</time>
      </trkpt>
      <trkpt lat="47.34092" lon="2.79908">
        <ele>294</ele>
        <time>2019-11-14T22:03:28Z</time>
      </trkpt>
      <trkpt lat="47.34096" lon="2.79939">
        <ele>294</ele>
        <time>2019-11-14T22:03:56Z</time>
      </trkpt>
      <trkpt lat="47.34102" lon="2.79982">
        <ele>294</ele>
        <time>2019-11-14T22:04:36Z</time>
      </trkpt>
      <trkpt lat="47.34127" lon="2.80084">
        <ele>292</ele>
        <time>2019-11-14T22:06:14Z</time>
      </trkpt>
      <trkpt lat="47.34142" lon="2.80104">
        <ele>294</ele>
        <time>2019-11-14T22:06:41Z</time>
      </trkpt>
      <trkpt lat="47.34142" lon="2.80114">
        <ele>293</ele>
        <time>2019-11-14T22:06:50Z</time>
      </trkpt>
      <trkpt lat="47.3415" lon="2.80172">
        <ele>288</ele>
        <time>2019-11-14T22:07:44Z</time>
      </trkpt>
      <trkpt lat="47.34175" lon="2.8023">
        <ele>287</ele>
        <time>2019-11-14T22:08:46Z</time>
      </trkpt>
      <trkpt lat="47.34202" lon="2.80292">
        <ele>283</ele>
        <time>2019-11-14T22:09:52Z</time>
      </trkpt>
      <trkpt lat="47.34231" lon="2.80341">
        <ele>282</ele>
        <time>2019-11-14T22:10:51Z</time>
      </trkpt>
      <trkpt lat="47.34279" lon="2.80413">
        <ele>276</ele>
        <time>2019-11-14T22:12:23Z</time>
      </trkpt>
      <trkpt lat="47.34297" lon="2.8043">
        <ele>275</ele>
        <time>2019-11-14T22:12:51Z</time>
      </trkpt>
      <trkpt lat="47.34336" lon="2.80468">
        <ele>273</ele>
        <time>2019-11-14T22:13:53Z</time>
      </trkpt>
      <trkpt lat="47.34336" lon="2.80487">
        <ele>271</ele>
        <time>2019-11-14T22:14:11Z</time>
      </trkpt>
      <trkpt lat="47.3434" lon="2.80499">
        <ele>270</ele>
        <time>2019-11-14T22:14:23Z</time>
      </trkpt>
      <trkpt lat="47.34336" lon="2.80524">
        <ele>268</ele>
        <time>2019-11-14T22:14:46Z</time>
      </trkpt>
      <trkpt lat="47.34331" lon="2.80542">
        <ele>266</ele>
        <time>2019-11-14T22:15:04Z</time>
      </trkpt>
      <trkpt lat="47.34329" lon="2.80568">
        <ele>264</ele>
        <time>2019-11-14T22:15:27Z</time>
      </trkpt>
      <trkpt lat="47.34324" lon="2.80588">
        <ele>262</ele>
        <time>2019-11-14T22:15:47Z</time>
      </trkpt>
      <trkpt lat="47.34315" lon="2.80623">
        <ele>260</ele>
        <time>2019-11-14T22:16:20Z</time>
      </trkpt>
      <trkpt lat="47.34302" lon="2.80643">
        <ele>259</ele>
        <time>2019-11-14T22:16:45Z</time>
      </trkpt>
      <trkpt lat="47.34288" lon="2.80665">
        <ele>257</ele>
        <time>2019-11-14T22:17:13Z</time>
      </trkpt>
      <trkpt lat="47.34274" lon="2.80697">
        <ele>256</ele>
        <time>2019-11-14T22:17:47Z</time>
      </trkpt>
      <trkpt lat="47.34263" lon="2.80708">
        <ele>256</ele>
        <time>2019-11-14T22:18:05Z</time>
      </trkpt>
      <trkpt lat="47.34242" lon="2.80749">
        <ele>254</ele>
        <time>2019-11-14T22:18:51Z</time>
      </trkpt>
      <trkpt lat="47.34225" lon="2.80773">
        <ele>253</ele>
        <time>2019-11-14T22:19:23Z</time>
      </trkpt>
      <trkpt lat="47.3421" lon="2.80794">
        <ele>252</ele>
        <time>2019-11-14T22:19:50Z</time>
      </trkpt>
      <trkpt lat="47.34206" lon="2.80818">
        <ele>252</ele>
        <time>2019-11-14T22:20:13Z</time>
      </trkpt>
      <trkpt lat="47.342" lon="2.80834">
        <ele>252</ele>
        <time>2019-11-14T22:20:29Z</time>
      </trkpt>
      <trkpt lat="47.34201" lon="2.80839">
        <ele>252</ele>
        <time>2019-11-14T22:20:34Z</time>
      </trkpt>
      <trkpt lat="47.34193" lon="2.80857">
        <ele>252</ele>
        <time>2019-11-14T22:20:53Z</time>
      </trkpt>
      <trkpt lat="47.34191" lon="2.80879">
        <ele>253</ele>
        <time>2019-11-14T22:21:13Z</time>
      </trkpt>
      <trkpt lat="47.34178" lon="2.80889">
        <ele>253</ele>
        <time>2019-11-14T22:21:33Z</time>
      </trkpt>
      <trkpt lat="47.34173" lon="2.8092">
        <ele>253</ele>
        <time>2019-11-14T22:22:02Z</time>
      </trkpt>
      <trkpt lat="47.34154" lon="2.8095">
        <ele>253</ele>
        <time>2019-11-14T22:22:39Z</time>
      </trkpt>
      <trkpt lat="47.34141" lon="2.80995">
        <ele>254</ele>
        <time>2019-11-14T22:23:23Z</time>
      </trkpt>
      <trkpt lat="47.34136" lon="2.81019">
        <ele>254</ele>
        <time>2019-11-14T22:23:46Z</time>
      </trkpt>
      <trkpt lat="47.34124" lon="2.81076">
        <ele>255</ele>
        <time>2019-11-14T22:24:40Z</time>
      </trkpt>
      <trkpt lat="47.34119" lon="2.81123">
        <ele>254</ele>
        <time>2019-11-14T22:25:23Z</time>
      </trkpt>
      <trkpt lat="47.34106" lon="2.81171">
        <ele>253</ele>
        <time>2019-11-14T22:26:10Z</time>
      </trkpt>
      <trkpt lat="47.34101" lon="2.81204">
        <ele>251</ele>
        <time>2019-11-14T22:26:40Z</time>
      </trkpt>
      <trkpt lat="47.34107" lon="2.81241">
        <ele>249</ele>
        <time>2019-11-14T22:27:15Z</time>
      </trkpt>
      <trkpt lat="47.34108" lon="2.81285">
        <ele>247</ele>
        <time>2019-11-14T22:27:54Z</time>
      </trkpt>
      <trkpt lat="47.34106" lon="2.81333">
        <ele>244</ele>
        <time>2019-11-14T22:28:38Z</time>
      </trkpt>
      <trkpt lat="47.34109" lon="2.81359">
        <ele>245</ele>
        <time>2019-11-14T22:29:02Z</time>
      </trkpt>
      <trkpt lat="47.34103" lon="2.81396">
        <ele>244</ele>
        <time>2019-11-14T22:29:36Z</time>
      </trkpt>
      <trkpt lat="47.34081" lon="2.81397">
        <ele>242</ele>
        <time>2019-11-14T22:30:06Z</time>
      </trkpt>
      <trkpt lat="47.34061" lon="2.81396">
        <ele>240</ele>
        <time>2019-11-14T22:30:32Z</time>
      </trkpt>
      <trkpt lat="47.3403" lon="2.81384">
        <ele>236</ele>
        <time>2019-11-14T22:31:15Z</time>
      </trkpt>
      <trkpt lat="47.33993" lon="2.81367">
        <ele>230</ele>
        <time>2019-11-14T22:32:07Z</time>
      </trkpt>
      <trkpt lat="47.3394" lon="2.81349">
        <ele>221</ele>
        <time>2019-11-14T22:33:19Z</time>
      </trkpt>
      <trkpt lat="47.33895" lon="2.81349">
        <ele>214</ele>
        <time>2019-11-14T22:34:19Z</time>
      </trkpt>
      <trkpt lat="47.3386" lon="2.81358">
        <ele>209</ele>
        <time>2019-11-14T22:35:07Z</time>
      </trkpt>
      <trkpt lat="47.33831" lon="2.8138">
        <ele>205</ele>
        <time>2019-11-14T22:35:50Z</time>
      </trkpt>
      <trkpt lat="47.33813" lon="2.81431">
        <ele>204</ele>
        <time>2019-11-14T22:36:42Z</time>
      </trkpt>
      <trkpt lat="47.33794" lon="2.81517">
        <ele>200</ele>
        <time>2019-11-14T22:38:04Z</time>
      </trkpt>
      <trkpt lat="47.33787" lon="2.81567">
        <ele>199</ele>
        <time>2019-11-14T22:38:50Z</time>
      </trkpt>
      <trkpt lat="47.3378" lon="2.81607">
        <ele>196</ele>
        <time>2019-11-14T22:39:28Z</time>
      </trkpt>
      <trkpt lat="47.33774" lon="2.81634">
        <ele>194</ele>
        <time>2019-11-14T22:39:53Z</time>
      </trkpt>
      <trkpt lat="47.3377" lon="2.81669">
        <ele>192</ele>
        <time>2019-11-14T22:40:25Z</time>
      </trkpt>
      <trkpt lat="47.33756" lon="2.81728">
        <ele>188</ele>
        <time>2019-11-14T22:41:22Z</time>
      </trkpt>
      <trkpt lat="47.33745" lon="2.81731">
        <ele>187</ele>
        <time>2019-11-14T22:41:37Z</time>
      </trkpt>
      <trkpt lat="47.33731" lon="2.81728">
        <ele>186</ele>
        <time>2019-11-14T22:41:56Z</time>
      </trkpt>
      <trkpt lat="47.33654" lon="2.81746">
        <ele>185</ele>
        <time>2019-11-14T22:43:40Z</time>
      </trkpt>
      <trkpt lat="47.33638" lon="2.81761">
        <ele>187</ele>
        <time>2019-11-14T22:44:05Z</time>
      </trkpt>
      <trkpt lat="47.33625" lon="2.8177">
        <ele>189</ele>
        <time>2019-11-14T22:44:24Z</time>
      </trkpt>
      <trkpt lat="47.33626" lon="2.81787">
        <ele>188</ele>
        <time>2019-11-14T22:44:40Z</time>
      </trkpt>
      <trkpt lat="47.33619" lon="2.8181">
        <ele>188</ele>
        <time>2019-11-14T22:45:03Z</time>
      </trkpt>
      <trkpt lat="47.33617" lon="2.81845">
        <ele>186</ele>
        <time>2019-11-14T22:45:34Z</time>
      </trkpt>
      <trkpt lat="47.33611" lon="2.81878">
        <ele>186</ele>
        <time>2019-11-14T22:46:05Z</time>
      </trkpt>
      <trkpt lat="47.33601" lon="2.81933">
        <ele>185</ele>
        <time>2019-11-14T22:46:57Z</time>
      </trkpt>
      <trkpt lat="47.33585" lon="2.82009">
        <ele>183</ele>
        <time>2019-11-14T22:48:09Z</time>
      </trkpt>
      <trkpt lat="47.33574" lon="2.8203">
        <ele>184</ele>
        <time>2019-11-14T22:48:33Z</time>
      </trkpt>
      <trkpt lat="47.33559" lon="2.82004">
        <ele>190</ele>
        <time>2019-11-14T22:49:04Z</time>
      </trkpt>
      <trkpt lat="47.33547" lon="2.82025">
        <ele>191</ele>
        <time>2019-11-14T22:49:28Z</time>
      </trkpt>
      <trkpt lat="47.33546" lon="2.82037">
        <ele>190</ele>
        <time>2019-11-14T22:49:39Z</time>
      </trkpt>
      <trkpt lat="47.33532" lon="2.82085">
        <ele>190</ele>
        <time>2019-11-14T22:50:27Z</time>
      </trkpt>
      <trkpt lat="47.33526" lon="2.82118">
        <ele>189</ele>
        <time>2019-11-14T22:50:57Z</time>
      </trkpt>
      <trkpt lat="47.33496" lon="2.82188">
        <ele>190</ele>
        <time>2019-11-14T22:52:12Z</time>
      </trkpt>
      <trkpt lat="47.33488" lon="2.82229">
        <ele>188</ele>
        <time>2019-11-14T22:52:51Z</time>
      </trkpt>
      <trkpt lat="47.33443" lon="2.8232">
        <ele>185</ele>
        <time>2019-11-14T22:54:33Z</time>
      </trkpt>
      <trkpt lat="47.33416" lon="2.82352">
        <ele>184</ele>
        <time>2019-11-14T22:55:19Z</time>
      </trkpt>
      <trkpt lat="47.3339" lon="2.82394">
        <ele>181</ele>
        <time>2019-11-14T22:56:10Z</time>
      </trkpt>
      <trkpt lat="47.3336" lon="2.82435">
        <ele>179</ele>
        <time>2019-11-14T22:57:05Z</time>
      </trkpt>
      <trkpt lat="47.33327" lon="2.82474">
        <ele>179</ele>
        <time>2019-11-14T22:58:01Z</time>
      </trkpt>
      <trkpt lat="47.33288" lon="2.82538">
        <ele>178</ele>
        <time>2019-11-14T22:59:19Z</time>
      </trkpt>
      <trkpt lat="47.3315" lon="2.82764">
        <ele>184</ele>
        <time>2019-11-14T23:03:54Z</time>
      </trkpt>
      <trkpt lat="47.33128" lon="2.82862">
        <ele>193</ele>
        <time>2019-11-14T23:05:28Z</time>
      </trkpt>
      <trkpt lat="47.33116" lon="2.82932">
        <ele>198</ele>
        <time>2019-11-14T23:06:33Z</time>
      </trkpt>
      <trkpt lat="47.33085" lon="2.82987">
        <ele>204</ele>
        <time>2019-11-14T23:07:38Z</time>
      </trkpt>
      <trkpt lat="47.33056" lon="2.83044">
        <ele>215</ele>
        <time>2019-11-14T23:08:42Z</time>
      </trkpt>
    </trkseg>
  </trk>
</gpx>